createdAt,value
2019-02-21T00:00:57.557Z,15.05
2019-02-21T00:03:27.135Z,13.70
2019-02-21T00:05:57.610Z,14.28
2019-02-21T00:08:27.432Z,13.88
2019-02-21T00:10:57.330Z,12.65
2019-02-21T00:13:29.354Z,13.68
2019-02-21T00:15:59.024Z,13.13
2019-02-21T00:18:28.538Z,13.70
2019-02-21T00:20:58.272Z,14.53
2019-02-21T00:23:28.349Z,13.98
2019-02-21T00:25:58.597Z,13.35
2019-02-21T00:28:28.758Z,14.38
2019-02-21T00:30:58.839Z,13.30
2019-02-21T00:33:28.378Z,13.80
2019-02-21T00:35:58.286Z,13.28
2019-02-21T00:38:28.150Z,14.50
2019-02-21T00:40:57.798Z,14.83
2019-02-21T00:43:27.880Z,13.83
2019-02-21T00:45:57.469Z,13.83
2019-02-21T00:48:27.287Z,13.88
2019-02-21T00:50:56.884Z,13.08
2019-02-21T00:53:26.446Z,14.68
2019-02-21T00:55:56.257Z,13.62
2019-02-21T00:58:25.831Z,14.00
2019-02-21T01:00:55.438Z,13.95
2019-02-21T01:03:25.266Z,14.63
2019-02-21T01:05:55.335Z,13.25
2019-02-21T01:08:24.929Z,13.65
2019-02-21T01:10:54.538Z,13.32
2019-02-21T01:13:24.352Z,13.58
2019-02-21T01:15:54.227Z,13.15
2019-02-21T01:18:24.072Z,13.15
2019-02-21T01:20:53.616Z,13.88
2019-02-21T01:23:23.508Z,15.43
2019-02-21T01:25:53.142Z,13.93
2019-02-21T01:28:23.202Z,14.10
2019-02-21T01:30:57.066Z,13.70
2019-02-21T01:33:24.289Z,14.28
2019-02-21T01:35:54.324Z,14.03
2019-02-21T01:38:24.458Z,14.28
2019-02-21T01:40:54.315Z,15.23
2019-02-21T01:43:23.914Z,13.35
2019-02-21T01:45:53.769Z,15.30
2019-02-21T01:48:23.724Z,13.65
2019-02-21T01:50:53.368Z,13.55
2019-02-21T01:53:22.957Z,13.80
2019-02-21T01:55:52.771Z,13.10
2019-02-21T01:58:23.250Z,14.50
2019-02-21T02:00:53.517Z,13.98
2019-02-21T02:03:23.399Z,14.63
2019-02-21T02:05:53.289Z,13.18
2019-02-21T02:08:23.111Z,13.43
2019-02-21T02:10:53.052Z,15.75
2019-02-21T02:13:24.903Z,13.98
2019-02-21T02:15:53.943Z,13.78
2019-02-21T02:18:23.522Z,15.70
2019-02-21T02:20:53.073Z,14.23
2019-02-21T02:23:23.287Z,14.63
2019-02-21T02:25:52.862Z,16.82
2019-02-21T02:28:22.740Z,16.05
2019-02-21T02:30:52.565Z,15.70
2019-02-21T02:33:22.492Z,17.73
2019-02-21T02:35:52.036Z,15.93
2019-02-21T02:38:21.856Z,16.57
2019-02-21T02:40:51.471Z,16.45
2019-02-21T02:43:21.045Z,16.42
2019-02-21T02:45:50.677Z,16.20
2019-02-21T02:48:20.809Z,16.50
2019-02-21T02:50:50.681Z,15.58
2019-02-21T02:53:20.503Z,17.00
2019-02-21T02:55:50.663Z,16.75
2019-02-21T02:58:20.579Z,16.25
2019-02-21T03:00:50.423Z,16.40
2019-02-21T03:03:20.495Z,16.55
2019-02-21T03:05:50.388Z,15.40
2019-02-21T03:08:20.225Z,16.60
2019-02-21T03:10:50.075Z,18.37
2019-02-21T03:13:19.634Z,16.23
2019-02-21T03:15:49.494Z,17.25
2019-02-21T03:18:19.034Z,16.77
2019-02-21T03:20:49.129Z,16.90
2019-02-21T03:23:18.938Z,17.52
2019-02-21T03:25:48.822Z,17.52
2019-02-21T03:28:18.640Z,15.95
2019-02-21T03:30:48.516Z,17.02
2019-02-21T03:33:18.139Z,17.07
2019-02-21T03:35:47.707Z,15.88
2019-02-21T03:38:17.356Z,14.95
2019-02-21T03:40:47.143Z,15.20
2019-02-21T03:43:16.790Z,16.25
2019-02-21T03:45:46.461Z,14.50
2019-02-21T03:48:16.303Z,15.25
2019-02-21T03:50:45.873Z,14.38
2019-02-21T03:53:15.472Z,15.15
2019-02-21T03:55:45.032Z,14.55
2019-02-21T03:58:14.630Z,14.65
2019-02-21T04:00:44.192Z,13.40
2019-02-21T04:03:13.812Z,13.98
2019-02-21T04:05:43.396Z,13.68
2019-02-21T04:08:12.979Z,14.58
2019-02-21T04:10:42.579Z,14.10
2019-02-21T04:13:14.930Z,15.28
2019-02-21T04:15:43.634Z,14.80
2019-02-21T04:18:13.213Z,15.20
2019-02-21T04:20:42.811Z,15.35
2019-02-21T04:23:12.844Z,12.60
2019-02-21T04:25:42.533Z,13.32
2019-02-21T04:28:12.198Z,13.72
2019-02-21T04:30:41.832Z,14.85
2019-02-21T04:33:11.518Z,13.72
2019-02-21T04:35:41.323Z,14.80
2019-02-21T04:38:11.129Z,13.78
2019-02-21T04:40:40.709Z,13.38
2019-02-21T04:43:10.268Z,12.82
2019-02-21T04:45:39.875Z,14.10
2019-02-21T04:48:09.429Z,14.33
2019-02-21T04:50:39.322Z,13.75
2019-02-21T04:53:09.202Z,15.88
2019-02-21T04:55:39.003Z,14.35
2019-02-21T04:58:08.573Z,13.98
2019-02-21T05:00:38.403Z,14.23
2019-02-21T05:03:07.976Z,14.53
2019-02-21T05:05:37.544Z,14.68
2019-02-21T05:08:07.143Z,14.23
2019-02-21T05:10:37.126Z,14.98
2019-02-21T05:13:06.677Z,15.10
2019-02-21T05:15:36.283Z,14.75
2019-02-21T05:18:06.131Z,15.80
2019-02-21T05:20:36.104Z,15.23
2019-02-21T05:23:05.949Z,16.60
2019-02-21T05:25:35.610Z,17.17
2019-02-21T05:28:27.354Z,16.65
2019-02-21T05:31:00.286Z,17.30
2019-02-21T05:34:07.556Z,17.12
2019-02-21T05:36:59.084Z,18.30
2019-02-21T05:39:53.624Z,18.35
2019-02-21T05:42:32.941Z,18.05
2019-02-21T05:45:30.845Z,18.55
2019-02-21T05:48:31.457Z,18.70
2019-02-21T05:51:14.199Z,21.17
2019-02-21T05:54:12.683Z,20.23
2019-02-21T05:57:07.420Z,20.45
2019-02-21T05:59:55.877Z,21.60
2019-02-21T06:02:59.266Z,23.25
2019-02-21T06:06:00.056Z,23.45
2019-02-21T06:08:48.571Z,22.05
2019-02-21T06:11:28.693Z,23.10
2019-02-21T06:14:35.652Z,21.17
2019-02-21T06:17:22.378Z,22.10
2019-02-21T06:20:09.247Z,23.65
2019-02-21T06:22:56.271Z,23.05
2019-02-21T06:25:50.905Z,23.15
2019-02-21T06:28:39.513Z,23.20
2019-02-21T06:31:12.162Z,23.02
2019-02-21T06:33:41.760Z,23.67
2019-02-21T06:36:11.615Z,22.70
2019-02-21T06:38:41.258Z,21.30
2019-02-21T06:41:11.153Z,21.35
2019-02-21T06:43:41.030Z,22.87
2019-02-21T06:46:13.508Z,22.93
2019-02-21T06:48:42.196Z,22.73
2019-02-21T06:51:11.755Z,23.35
2019-02-21T06:53:41.619Z,24.57
2019-02-21T06:56:11.219Z,24.45
2019-02-21T06:58:42.159Z,21.23
2019-02-21T07:01:12.134Z,21.85
2019-02-21T07:03:41.764Z,22.10
2019-02-21T07:06:11.301Z,22.55
2019-02-21T07:08:40.903Z,22.32
2019-02-21T07:11:10.720Z,21.25
2019-02-21T07:13:40.515Z,21.42
2019-02-21T07:16:12.877Z,21.68
2019-02-21T07:18:41.647Z,22.10
2019-02-21T07:21:13.285Z,22.25
2019-02-21T07:23:43.934Z,20.65
2019-02-21T07:26:16.385Z,20.65
2019-02-21T07:28:46.239Z,21.17
2019-02-21T07:31:27.767Z,19.80
2019-02-21T07:33:48.423Z,20.37
2019-02-21T07:36:18.020Z,20.27
2019-02-21T07:38:47.904Z,21.00
2019-02-21T07:41:18.666Z,19.55
2019-02-21T07:43:48.515Z,21.00
2019-02-21T07:46:18.084Z,21.52
2019-02-21T07:48:47.659Z,20.43
2019-02-21T07:51:17.259Z,21.30
2019-02-21T07:53:47.452Z,20.32
2019-02-21T07:56:17.098Z,20.57
2019-02-21T07:58:46.676Z,19.77
2019-02-21T08:01:17.465Z,21.27
2019-02-21T08:03:48.593Z,19.05
2019-02-21T08:06:19.955Z,20.75
2019-02-21T08:08:49.892Z,20.08
2019-02-21T08:11:19.708Z,18.75
2019-02-21T08:13:49.587Z,19.05
2019-02-21T08:16:19.166Z,19.23
2019-02-21T08:18:48.824Z,20.82
2019-02-21T08:21:18.750Z,19.73
2019-02-21T08:23:50.805Z,18.98
2019-02-21T08:26:20.223Z,19.12
2019-02-21T08:28:50.183Z,19.27
2019-02-21T08:31:19.776Z,20.27
2019-02-21T08:34:04.219Z,21.80
2019-02-21T08:36:33.302Z,20.37
2019-02-21T08:39:04.724Z,21.97
2019-02-21T08:41:34.384Z,23.83
2019-02-21T08:44:04.015Z,24.45
2019-02-21T08:46:33.605Z,22.73
2019-02-21T08:49:03.456Z,22.22
2019-02-21T08:51:33.316Z,22.67
2019-02-21T08:54:05.524Z,24.87
2019-02-21T08:56:34.092Z,23.18
2019-02-21T08:59:03.693Z,23.32
2019-02-21T09:01:33.579Z,22.85
2019-02-21T09:04:10.484Z,24.60
2019-02-21T09:06:34.677Z,23.87
2019-02-21T09:09:05.607Z,24.25
2019-02-21T09:11:35.211Z,23.75
2019-02-21T09:14:04.791Z,24.05
2019-02-21T09:16:34.357Z,23.65
2019-02-21T09:19:04.027Z,24.72
2019-02-21T09:21:33.839Z,20.88
2019-02-21T09:24:03.703Z,21.65
2019-02-21T09:26:34.700Z,23.32
2019-02-21T09:29:04.584Z,20.48
2019-02-21T09:31:34.734Z,21.20
2019-02-21T09:34:04.310Z,21.02
2019-02-21T09:36:33.893Z,20.15
2019-02-21T09:39:04.650Z,20.12
2019-02-21T09:41:34.190Z,20.43
2019-02-21T09:44:03.886Z,19.90
2019-02-21T09:46:33.734Z,21.02
2019-02-21T09:49:03.304Z,20.70
2019-02-21T09:51:33.148Z,18.15
2019-02-21T09:54:02.754Z,16.70
2019-02-21T09:56:32.302Z,18.45
2019-02-21T09:59:01.892Z,18.90
2019-02-21T10:01:31.506Z,18.67
2019-02-21T10:04:01.203Z,20.10
2019-02-21T10:06:30.779Z,19.85
2019-02-21T10:09:00.614Z,19.00
2019-02-21T10:11:30.447Z,19.62
2019-02-21T10:14:00.068Z,18.62
2019-02-21T10:16:29.887Z,17.67
2019-02-21T10:18:59.538Z,20.50
2019-02-21T10:21:29.368Z,18.55
2019-02-21T10:23:58.985Z,20.48
2019-02-21T10:26:28.844Z,20.92
2019-02-21T10:28:58.450Z,21.45
2019-02-21T10:31:28.423Z,23.75
2019-02-21T10:33:58.226Z,21.82
2019-02-21T10:36:27.805Z,21.70
2019-02-21T10:38:57.375Z,21.73
2019-02-21T10:41:26.960Z,22.07
2019-02-21T10:43:56.547Z,23.98
2019-02-21T10:46:26.166Z,22.77
2019-02-21T10:48:56.039Z,23.22
2019-02-21T10:51:25.663Z,24.70
2019-02-21T10:53:55.856Z,23.02
2019-02-21T10:56:25.425Z,24.65
2019-02-21T10:58:55.073Z,24.32
2019-02-21T11:01:24.671Z,24.10
2019-02-21T11:03:54.929Z,25.88
2019-02-21T11:06:24.533Z,26.68
2019-02-21T11:08:54.165Z,26.05
2019-02-21T11:11:24.052Z,25.00
2019-02-21T11:13:53.686Z,25.92
2019-02-21T11:16:23.299Z,26.23
2019-02-21T11:18:52.914Z,25.17
2019-02-21T11:21:22.484Z,24.80
2019-02-21T11:23:52.878Z,25.20
2019-02-21T11:26:22.445Z,25.70
2019-02-21T11:28:52.053Z,25.68
2019-02-21T11:31:21.895Z,28.20
2019-02-21T11:33:51.759Z,27.95
2019-02-21T11:36:21.303Z,28.95
2019-02-21T11:38:50.936Z,28.23
2019-02-21T11:41:20.481Z,30.50
2019-02-21T11:43:50.305Z,29.15
2019-02-21T11:46:19.904Z,30.15
2019-02-21T11:48:49.800Z,29.20
2019-02-21T11:51:19.632Z,28.70
2019-02-21T11:53:49.278Z,29.98
2019-02-21T11:56:19.096Z,29.63
2019-02-21T11:58:48.697Z,32.42
2019-02-21T12:01:18.562Z,33.70
2019-02-21T12:03:48.676Z,32.17
2019-02-21T12:06:18.256Z,34.03
2019-02-21T12:08:47.832Z,33.28
2019-02-21T12:11:17.447Z,33.00
2019-02-21T12:13:46.984Z,34.83
2019-02-21T12:16:16.542Z,36.75
2019-02-21T12:18:46.397Z,33.67
2019-02-21T12:21:16.238Z,33.83
2019-02-21T12:23:46.384Z,32.48
2019-02-21T12:26:16.405Z,32.42
2019-02-21T12:28:45.989Z,31.65
2019-02-21T12:31:15.587Z,31.50
2019-02-21T12:33:45.396Z,30.88
2019-02-21T12:36:15.316Z,30.90
2019-02-21T12:38:45.404Z,31.52
2019-02-21T12:41:15.502Z,28.80
2019-02-21T12:43:45.366Z,30.12
2019-02-21T12:46:15.239Z,30.57
2019-02-21T12:48:44.800Z,28.25
2019-02-21T12:51:14.618Z,30.90
2019-02-21T12:53:44.268Z,29.20
2019-02-21T12:56:13.895Z,28.25
2019-02-21T12:58:45.282Z,27.82
2019-02-21T13:01:15.524Z,29.48
2019-02-21T13:03:45.391Z,29.23
2019-02-21T13:06:15.345Z,29.15
2019-02-21T13:08:45.135Z,26.97
2019-02-21T13:11:14.749Z,28.83
2019-02-21T13:13:44.276Z,25.88
2019-02-21T13:16:13.894Z,28.65
2019-02-21T13:18:43.728Z,28.52
2019-02-21T13:21:13.563Z,28.85
2019-02-21T13:23:43.439Z,25.02
2019-02-21T13:26:13.249Z,25.70
2019-02-21T13:28:43.195Z,24.90
2019-02-21T13:31:12.748Z,25.75
2019-02-21T13:33:42.607Z,23.05
2019-02-21T13:36:12.455Z,25.50
2019-02-21T13:38:42.103Z,23.50
2019-02-21T13:41:11.695Z,26.20
2019-02-21T13:43:41.263Z,24.95
2019-02-21T13:46:11.135Z,23.10
2019-02-21T13:48:40.723Z,21.50
2019-02-21T13:51:10.971Z,23.12
2019-02-21T13:53:41.123Z,24.18
2019-02-21T13:56:12.081Z,25.20
2019-02-21T13:58:41.642Z,23.45
2019-02-21T14:01:14.295Z,26.40
2019-02-21T14:03:42.553Z,23.83
2019-02-21T14:06:12.150Z,25.88
2019-02-21T14:08:42.010Z,26.25
2019-02-21T14:11:11.628Z,26.02
2019-02-21T14:13:41.476Z,26.87
2019-02-21T14:16:11.076Z,25.75
2019-02-21T14:18:40.987Z,26.68
2019-02-21T14:21:13.331Z,26.30
2019-02-21T14:23:43.002Z,26.87
2019-02-21T14:26:12.677Z,25.80
2019-02-21T14:28:42.321Z,25.77
2019-02-21T14:31:11.897Z,28.50
2019-02-21T14:33:41.465Z,26.80
2019-02-21T14:36:15.999Z,26.33
2019-02-21T14:38:42.415Z,26.82
2019-02-21T14:41:12.114Z,28.32
2019-02-21T14:43:42.200Z,27.80
2019-02-21T14:46:12.090Z,25.60
2019-02-21T14:48:41.683Z,25.62
2019-02-21T14:51:11.247Z,25.75
2019-02-21T14:53:41.042Z,24.10
2019-02-21T14:56:10.716Z,23.70
2019-02-21T14:58:40.537Z,24.10
2019-02-21T15:01:10.232Z,25.17
2019-02-21T15:03:39.890Z,24.57
2019-02-21T15:06:09.701Z,24.02
2019-02-21T15:08:39.532Z,22.95
2019-02-21T15:11:09.121Z,21.87
2019-02-21T15:13:38.666Z,20.50
2019-02-21T15:16:08.546Z,23.85
2019-02-21T15:18:38.371Z,21.90
2019-02-21T15:21:08.258Z,22.02
2019-02-21T15:23:37.823Z,21.33
2019-02-21T15:26:07.650Z,21.90
2019-02-21T15:28:37.451Z,20.88
2019-02-21T15:31:07.825Z,20.65
2019-02-21T15:33:37.719Z,22.90
2019-02-21T15:36:07.292Z,22.90
2019-02-21T15:38:36.872Z,22.50
2019-02-21T15:41:06.773Z,21.17
2019-02-21T15:43:36.330Z,20.62
2019-02-21T15:46:07.450Z,21.48
2019-02-21T15:48:37.192Z,20.80
2019-02-21T15:51:06.728Z,21.27
2019-02-21T15:53:36.337Z,20.40
2019-02-21T15:56:05.941Z,19.15
2019-02-21T15:58:38.553Z,18.85
2019-02-21T16:01:08.497Z,19.35
2019-02-21T16:03:38.345Z,17.23
2019-02-21T16:06:07.935Z,19.05
2019-02-21T16:08:37.567Z,19.32
2019-02-21T16:11:07.177Z,18.05
2019-02-21T16:13:37.189Z,18.02
2019-02-21T16:16:06.911Z,16.45
2019-02-21T16:18:36.456Z,18.67
2019-02-21T16:21:06.413Z,17.35
2019-02-21T16:23:35.965Z,18.05
2019-02-21T16:26:05.525Z,18.12
2019-02-21T16:28:35.359Z,18.27
2019-02-21T16:31:04.988Z,19.07
2019-02-21T16:33:34.595Z,18.27
2019-02-21T16:36:04.235Z,17.62
2019-02-21T16:38:34.158Z,17.12
2019-02-21T16:41:03.751Z,18.52
2019-02-21T16:43:33.358Z,19.52
2019-02-21T16:46:07.936Z,19.05
2019-02-21T16:48:34.396Z,17.32
2019-02-21T16:51:03.975Z,18.27
2019-02-21T16:53:33.573Z,19.12
2019-02-21T16:56:03.132Z,18.25
2019-02-21T16:58:32.689Z,17.62
2019-02-21T17:01:02.294Z,20.10
2019-02-21T17:03:31.891Z,19.60
2019-02-21T17:06:03.513Z,20.88
2019-02-21T17:08:32.720Z,20.52
2019-02-21T17:11:02.507Z,19.40
2019-02-21T17:13:32.383Z,21.55
2019-02-21T17:16:01.963Z,22.60
2019-02-21T17:18:31.604Z,22.42
2019-02-21T17:21:01.228Z,20.60
2019-02-21T17:23:30.796Z,20.62
2019-02-21T17:26:00.400Z,21.15
2019-02-21T17:28:29.970Z,20.35
2019-02-21T17:30:59.636Z,20.82
2019-02-21T17:33:29.255Z,18.75
2019-02-21T17:35:58.794Z,20.00
2019-02-21T17:38:28.671Z,21.77
2019-02-21T17:40:58.489Z,19.82
2019-02-21T17:43:28.647Z,20.77
2019-02-21T17:45:58.263Z,17.90
2019-02-21T17:48:27.864Z,17.10
2019-02-21T17:50:57.809Z,16.35
2019-02-21T17:53:27.396Z,16.30
2019-02-21T17:55:56.995Z,14.70
2019-02-21T17:58:27.075Z,16.52
2019-02-21T18:00:56.705Z,18.25
2019-02-21T18:03:26.248Z,15.35
2019-02-21T18:05:56.123Z,14.87
2019-02-21T18:08:26.178Z,14.25
2019-02-21T18:10:55.772Z,14.68
2019-02-21T18:13:25.336Z,16.37
2019-02-21T18:15:55.256Z,16.85
2019-02-21T18:18:25.393Z,16.23
2019-02-21T18:20:54.972Z,17.65
2019-02-21T18:23:24.832Z,16.27
2019-02-21T18:26:02.384Z,17.65
2019-02-21T18:28:32.519Z,17.92
2019-02-21T18:31:02.440Z,17.98
2019-02-21T18:33:32.067Z,16.25
2019-02-21T18:36:01.686Z,19.52
2019-02-21T18:38:31.790Z,20.80
2019-02-21T18:41:01.372Z,23.05
2019-02-21T18:43:30.938Z,24.67
2019-02-21T18:46:00.838Z,25.20
2019-02-21T18:48:30.456Z,25.37
2019-02-21T18:51:00.403Z,26.48
2019-02-21T18:53:30.262Z,27.02
2019-02-21T18:56:00.109Z,26.95
2019-02-21T18:58:29.729Z,25.37
2019-02-21T19:00:59.320Z,28.10
2019-02-21T19:03:29.231Z,26.50
2019-02-21T19:05:59.305Z,27.98
2019-02-21T19:08:28.984Z,28.27
2019-02-21T19:10:58.619Z,25.70
2019-02-21T19:13:28.230Z,26.20
2019-02-21T19:15:57.870Z,25.77
2019-02-21T19:18:27.861Z,25.68
2019-02-21T19:20:57.529Z,26.48
2019-02-21T19:23:27.085Z,25.88
2019-02-21T19:25:56.680Z,26.02
2019-02-21T19:28:26.259Z,27.22
2019-02-21T19:31:02.053Z,28.02
2019-02-21T19:33:32.167Z,27.90
2019-02-21T19:36:01.783Z,29.80
2019-02-21T19:38:31.351Z,30.20
2019-02-21T19:41:01.054Z,30.50
2019-02-21T19:43:31.170Z,32.13
2019-02-21T19:46:00.839Z,31.95
2019-02-21T19:48:30.694Z,33.80
2019-02-21T19:51:00.518Z,35.58
2019-02-21T19:53:30.084Z,36.35
2019-02-21T19:55:59.701Z,37.42
2019-02-21T19:58:29.360Z,36.42
2019-02-21T20:00:59.437Z,41.77
2019-02-21T20:03:29.153Z,40.58
2019-02-21T20:05:58.913Z,38.70
2019-02-21T20:08:28.820Z,38.98
2019-02-21T20:10:58.654Z,37.05
2019-02-21T20:13:28.576Z,39.45
2019-02-21T20:15:58.186Z,38.25
2019-02-21T20:18:28.387Z,37.25
2019-02-21T20:20:57.981Z,36.75
2019-02-21T20:23:27.627Z,36.55
2019-02-21T20:25:57.736Z,36.85
2019-02-21T20:28:27.421Z,37.50
2019-02-21T20:30:57.040Z,36.60
2019-02-21T20:33:26.864Z,38.83
2019-02-21T20:35:56.733Z,37.73
2019-02-21T20:38:32.127Z,37.95
2019-02-21T20:40:58.056Z,35.23
2019-02-21T20:43:27.751Z,36.77
2019-02-21T20:45:57.591Z,37.70
2019-02-21T20:48:27.227Z,37.53
2019-02-21T20:50:57.424Z,41.60
2019-02-21T20:53:27.549Z,41.00
2019-02-21T20:55:58.443Z,40.80
2019-02-21T20:58:28.321Z,43.68
2019-02-21T21:00:58.663Z,38.58
2019-02-21T21:03:28.530Z,42.58
2019-02-21T21:05:58.436Z,42.13
2019-02-21T21:08:28.300Z,41.08
2019-02-21T21:10:58.213Z,44.58
2019-02-21T21:13:28.113Z,42.73
2019-02-21T21:15:57.723Z,44.93
2019-02-21T21:18:27.368Z,45.08
2019-02-21T21:20:57.297Z,43.28
2019-02-21T21:23:26.876Z,45.15
2019-02-21T21:25:56.515Z,46.75
2019-02-21T21:28:26.178Z,46.70
2019-02-21T21:30:55.754Z,46.08
2019-02-21T21:33:25.330Z,46.20
2019-02-21T21:35:54.973Z,46.10
2019-02-21T21:38:24.601Z,49.05
2019-02-21T21:40:54.257Z,47.35
2019-02-21T21:43:23.822Z,44.88
2019-02-21T21:45:53.960Z,45.35
2019-02-21T21:48:24.383Z,46.70
2019-02-21T21:50:53.984Z,46.37
2019-02-21T21:53:23.603Z,48.15
2019-02-21T21:55:53.197Z,46.23
2019-02-21T21:58:23.038Z,47.80
2019-02-21T22:00:52.951Z,46.88
2019-02-21T22:03:22.688Z,47.40
2019-02-21T22:05:52.525Z,47.20
2019-02-21T22:08:23.980Z,44.60
2019-02-21T22:10:53.581Z,46.48
2019-02-21T22:13:23.152Z,45.08
2019-02-21T22:15:52.750Z,47.33
2019-02-21T22:18:22.314Z,47.23
2019-02-21T22:20:51.995Z,43.52
2019-02-21T22:23:21.555Z,46.58
2019-02-21T22:25:51.676Z,43.10
2019-02-21T22:28:21.282Z,39.78
2019-02-21T22:30:51.153Z,44.05
2019-02-21T22:33:20.707Z,42.45
2019-02-21T22:35:50.434Z,38.15
2019-02-21T22:38:20.427Z,39.92
2019-02-21T22:40:50.083Z,39.70
2019-02-21T22:43:19.691Z,38.55
2019-02-21T22:45:49.291Z,40.03
2019-02-21T22:48:18.913Z,40.15
2019-02-21T22:50:48.523Z,43.87
2019-02-21T22:53:18.435Z,40.50
2019-02-21T22:55:48.028Z,42.38
2019-02-21T22:58:18.117Z,41.90
2019-02-21T23:01:08.252Z,41.25
2019-02-21T23:03:42.471Z,40.40
2019-02-21T23:06:35.835Z,41.58
2019-02-21T23:09:07.921Z,40.17
2019-02-21T23:11:37.502Z,41.15
2019-02-21T23:14:07.089Z,43.15
2019-02-21T23:16:36.912Z,39.83
2019-02-21T23:19:06.520Z,41.92
2019-02-21T23:21:36.151Z,44.33
2019-02-21T23:24:05.766Z,41.18
2019-02-21T23:26:35.355Z,41.05
2019-02-21T23:29:05.199Z,42.05
2019-02-21T23:31:34.835Z,43.33
2019-02-21T23:34:05.811Z,39.08
2019-02-21T23:36:35.645Z,41.53
2019-02-21T23:39:05.390Z,42.25
2019-02-21T23:41:34.973Z,41.20
2019-02-21T23:44:04.807Z,40.03
2019-02-21T23:46:34.397Z,41.18
2019-02-21T23:49:04.016Z,41.30
2019-02-21T23:51:33.859Z,40.30
2019-02-21T23:54:03.557Z,42.35
2019-02-21T23:56:33.123Z,40.30
2019-02-21T23:59:02.730Z,40.95
